createdAt,value
2022-10-27T00:00:03.686Z,5.13
2022-10-27T00:01:05.604Z,4.82
2022-10-27T00:02:08.187Z,5.07
2022-10-27T00:03:14.986Z,5.22
2022-10-27T00:04:18.751Z,4.68
2022-10-27T00:05:22.276Z,4.63
2022-10-27T00:06:24.807Z,5.13
2022-10-27T00:07:26.392Z,4.75
2022-10-27T00:08:28.911Z,4.97
2022-10-27T00:09:30.641Z,4.85
2022-10-27T00:10:33.299Z,5.78
2022-10-27T00:11:34.900Z,5.68
2022-10-27T00:12:37.574Z,6.78
2022-10-27T00:13:39.119Z,5.88
2022-10-27T00:14:42.276Z,6.75
2022-10-27T00:15:43.822Z,6.80
2022-10-27T00:16:53.671Z,6.88
2022-10-27T00:17:55.250Z,6.38
2022-10-27T00:18:57.744Z,6.00
2022-10-27T00:19:59.329Z,6.18
2022-10-27T00:21:07.137Z,6.40
2022-10-27T00:22:08.728Z,6.63
2022-10-27T00:23:11.262Z,6.10
2022-10-27T00:24:12.813Z,6.45
2022-10-27T00:25:15.480Z,6.30
2022-10-27T00:26:18.798Z,6.07
2022-10-27T00:27:21.370Z,5.35
2022-10-27T00:29:31.035Z,6.03
2022-10-27T00:30:32.606Z,6.15
2022-10-27T00:31:35.144Z,5.97
2022-10-27T00:32:36.726Z,6.28
2022-10-27T00:33:39.428Z,5.85
2022-10-27T00:34:41.002Z,5.82
2022-10-27T00:35:43.553Z,6.18
2022-10-27T00:36:46.447Z,5.68
2022-10-27T00:37:49.343Z,5.85
2022-10-27T00:38:53.709Z,5.20
2022-10-27T00:39:56.232Z,6.03
2022-10-27T00:40:57.771Z,5.35
2022-10-27T00:42:00.330Z,6.10
2022-10-27T00:43:01.940Z,5.25
2022-10-27T00:44:31.201Z,5.18
2022-10-27T00:45:32.831Z,5.55
2022-10-27T00:46:37.925Z,6.00
2022-10-27T00:47:39.712Z,5.78
2022-10-27T00:48:42.675Z,6.35
2022-10-27T00:49:47.580Z,6.20
2022-10-27T00:50:50.150Z,5.75
2022-10-27T00:51:54.264Z,5.78
2022-10-27T00:52:59.228Z,5.32
2022-10-27T00:54:00.964Z,5.22
2022-10-27T00:55:07.262Z,5.35
2022-10-27T00:56:08.896Z,5.70
2022-10-27T00:57:12.987Z,5.57
2022-10-27T00:58:16.603Z,6.15
2022-10-27T00:59:20.858Z,6.43
2022-10-27T01:00:25.315Z,5.65
2022-10-27T01:01:29.125Z,6.25
2022-10-27T01:02:31.325Z,6.53
2022-10-27T01:03:34.699Z,6.07
2022-10-27T01:04:42.984Z,6.25
2022-10-27T01:05:49.407Z,5.72
2022-10-27T01:06:51.428Z,5.85
2022-10-27T01:07:57.610Z,5.70
2022-10-27T01:08:59.208Z,6.55
2022-10-27T01:10:05.792Z,6.32
2022-10-27T01:11:08.267Z,6.35
2022-10-27T01:12:11.125Z,6.05
2022-10-27T01:13:14.252Z,6.28
2022-10-27T01:14:17.523Z,6.35
2022-10-27T01:15:19.405Z,5.65
2022-10-27T01:16:29.862Z,5.53
2022-10-27T01:17:40.361Z,5.53
2022-10-27T01:18:51.478Z,6.15
2022-10-27T01:20:16.882Z,6.05
2022-10-27T01:21:56.524Z,5.13
2022-10-27T01:23:04.024Z,5.38
2022-10-27T01:24:35.553Z,5.38
2022-10-27T01:26:17.633Z,5.53
2022-10-27T01:27:46.553Z,5.65
2022-10-27T01:29:14.603Z,5.50
2022-10-27T01:30:18.096Z,5.88
2022-10-27T01:31:24.795Z,6.57
2022-10-27T01:32:30.107Z,5.70
2022-10-27T01:33:38.735Z,5.20
2022-10-27T01:34:45.102Z,5.80
2022-10-27T01:35:52.064Z,5.85
2022-10-27T01:36:55.696Z,5.15
2022-10-27T01:38:02.889Z,5.95
2022-10-27T01:39:06.803Z,4.75
2022-10-27T01:40:16.362Z,4.75
2022-10-27T01:41:21.379Z,5.43
2022-10-27T01:42:30.583Z,5.78
2022-10-27T01:43:32.702Z,5.38
2022-10-27T01:44:39.477Z,6.25
2022-10-27T01:45:41.809Z,6.00
2022-10-27T01:46:46.230Z,5.80
2022-10-27T01:47:48.448Z,5.50
2022-10-27T01:48:51.183Z,5.38
2022-10-27T01:49:54.348Z,5.10
2022-10-27T01:51:01.611Z,5.57
2022-10-27T01:52:04.972Z,5.07
2022-10-27T01:53:07.602Z,5.65
2022-10-27T01:54:09.309Z,5.47
2022-10-27T01:55:18.157Z,5.93
2022-10-27T01:56:38.342Z,4.63
2022-10-27T01:58:00.585Z,5.10
2022-10-27T01:59:20.301Z,6.78
2022-10-27T02:00:22.905Z,5.10
2022-10-27T02:01:39.872Z,5.35
2022-10-27T02:02:49.221Z,5.40
2022-10-27T02:03:57.001Z,5.13
2022-10-27T02:05:06.404Z,4.90
2022-10-27T02:06:10.891Z,4.65
2022-10-27T02:07:18.208Z,5.40
2022-10-27T02:08:24.866Z,5.65
2022-10-27T02:09:32.342Z,5.75
2022-10-27T02:10:36.310Z,5.50
2022-10-27T02:11:41.023Z,5.78
2022-10-27T02:12:44.728Z,6.47
2022-10-27T02:13:47.793Z,5.90
2022-10-27T02:14:52.108Z,5.60
2022-10-27T02:15:58.655Z,6.45
2022-10-27T02:17:00.831Z,5.82
2022-10-27T02:18:07.111Z,5.95
2022-10-27T02:19:10.697Z,5.68
2022-10-27T02:20:18.049Z,5.45
2022-10-27T02:21:20.212Z,5.20
2022-10-27T02:22:23.633Z,5.97
2022-10-27T02:23:25.643Z,5.35
2022-10-27T02:24:28.845Z,5.90
2022-10-27T02:25:36.891Z,5.80
2022-10-27T02:26:45.177Z,5.55
2022-10-27T02:27:48.709Z,5.05
2022-10-27T02:28:56.137Z,5.85
2022-10-27T02:30:00.193Z,4.75
2022-10-27T02:31:03.526Z,5.30
2022-10-27T02:32:06.976Z,5.20
2022-10-27T02:33:11.969Z,4.95
2022-10-27T02:34:14.805Z,5.43
2022-10-27T02:35:17.935Z,5.00
2022-10-27T02:36:19.719Z,5.53
2022-10-27T02:37:27.739Z,5.40
2022-10-27T02:38:29.307Z,5.80
2022-10-27T02:39:31.930Z,5.93
2022-10-27T02:40:33.666Z,6.20
2022-10-27T02:41:36.635Z,5.93
2022-10-27T02:42:38.412Z,5.60
2022-10-27T02:43:41.493Z,4.90
2022-10-27T02:44:43.376Z,5.72
2022-10-27T02:45:46.012Z,5.38
2022-10-27T02:46:50.432Z,5.00
2022-10-27T02:47:55.493Z,5.50
2022-10-27T02:48:58.508Z,5.75
2022-10-27T02:50:01.318Z,6.95
2022-10-27T02:51:02.905Z,5.40
2022-10-27T02:52:05.798Z,5.35
2022-10-27T02:53:08.014Z,5.45
2022-10-27T02:54:10.576Z,5.97
2022-10-27T02:55:12.254Z,5.43
2022-10-27T02:56:14.888Z,5.13
2022-10-27T02:57:17.179Z,4.85
2022-10-27T02:58:19.796Z,5.13
2022-10-27T02:59:21.356Z,6.40
2022-10-27T03:00:24.314Z,5.90
2022-10-27T03:01:26.052Z,5.60
2022-10-27T03:02:28.721Z,5.78
2022-10-27T03:03:30.399Z,5.68
2022-10-27T03:04:34.601Z,6.18
2022-10-27T03:05:36.167Z,6.43
2022-10-27T03:06:38.704Z,5.28
2022-10-27T03:07:42.932Z,6.35
2022-10-27T03:08:45.454Z,5.60
2022-10-27T03:09:46.988Z,6.13
2022-10-27T03:10:49.569Z,5.90
2022-10-27T03:11:51.234Z,5.05
2022-10-27T03:12:53.852Z,5.53
2022-10-27T03:13:55.672Z,5.97
2022-10-27T03:14:58.158Z,5.70
2022-10-27T03:15:59.733Z,5.93
2022-10-27T03:17:02.267Z,5.78
2022-10-27T03:18:03.973Z,6.72
2022-10-27T03:19:06.561Z,6.80
2022-10-27T03:20:10.434Z,5.80
2022-10-27T03:21:12.961Z,6.38
2022-10-27T03:22:14.552Z,5.78
2022-10-27T03:23:17.069Z,6.57
2022-10-27T03:24:18.663Z,6.43
2022-10-27T03:25:21.359Z,6.43
2022-10-27T03:26:22.975Z,6.15
2022-10-27T03:27:25.511Z,6.65
2022-10-27T03:28:27.104Z,6.28
2022-10-27T03:29:29.621Z,6.60
2022-10-27T03:30:31.139Z,5.45
2022-10-27T03:31:33.704Z,6.15
2022-10-27T03:32:35.244Z,6.65
2022-10-27T03:33:37.760Z,6.30
2022-10-27T03:34:39.305Z,5.93
2022-10-27T03:35:43.264Z,6.30
2022-10-27T03:36:45.851Z,6.40
2022-10-27T03:37:55.441Z,5.78
2022-10-27T03:38:57.965Z,5.70
2022-10-27T03:39:59.549Z,5.70
2022-10-27T03:41:02.091Z,6.43
2022-10-27T03:42:04.158Z,6.40
2022-10-27T03:43:06.667Z,5.93
2022-10-27T03:44:08.269Z,5.65
2022-10-27T03:45:12.000Z,5.57
2022-10-27T03:46:13.555Z,6.50
2022-10-27T03:47:16.116Z,5.03
2022-10-27T03:48:17.645Z,6.80
2022-10-27T03:49:20.210Z,5.35
2022-10-27T03:50:21.796Z,7.15
2022-10-27T03:51:25.699Z,6.40
2022-10-27T03:52:29.628Z,5.72
2022-10-27T03:53:34.965Z,5.97
2022-10-27T03:54:36.502Z,6.68
2022-10-27T03:55:39.353Z,5.70
2022-10-27T03:56:40.976Z,5.90
2022-10-27T03:57:43.506Z,6.40
2022-10-27T03:58:45.088Z,6.05
2022-10-27T03:59:47.623Z,5.90
2022-10-27T04:00:49.277Z,5.45
2022-10-27T04:01:51.984Z,5.93
2022-10-27T04:02:54.385Z,4.97
2022-10-27T04:03:56.898Z,7.00
2022-10-27T04:04:58.713Z,5.97
2022-10-27T04:06:01.215Z,5.95
2022-10-27T04:07:04.472Z,6.70
2022-10-27T04:08:07.021Z,6.05
2022-10-27T04:09:08.574Z,5.35
2022-10-27T04:10:11.163Z,7.20
2022-10-27T04:11:12.705Z,5.72
2022-10-27T04:12:15.255Z,6.47
2022-10-27T04:13:16.820Z,5.97
2022-10-27T04:14:19.324Z,6.22
2022-10-27T04:15:22.053Z,6.05
2022-10-27T04:16:24.659Z,6.38
2022-10-27T04:17:26.237Z,5.97
2022-10-27T04:18:28.815Z,6.50
2022-10-27T04:19:30.352Z,6.88
2022-10-27T04:20:33.183Z,6.40
2022-10-27T04:21:35.667Z,6.22
2022-10-27T04:22:38.864Z,6.70
2022-10-27T04:23:41.400Z,7.05
2022-10-27T04:24:42.950Z,7.38
2022-10-27T04:25:45.547Z,6.30
2022-10-27T04:26:47.121Z,6.65
2022-10-27T04:27:49.837Z,7.10
2022-10-27T04:28:52.509Z,6.50
2022-10-27T04:29:54.050Z,7.65
2022-10-27T04:30:56.560Z,6.70
2022-10-27T04:31:58.084Z,6.10
2022-10-27T04:33:00.668Z,6.68
2022-10-27T04:34:02.841Z,6.30
2022-10-27T04:35:06.061Z,5.97
2022-10-27T04:36:08.051Z,6.32
2022-10-27T04:37:10.817Z,5.80
2022-10-27T04:38:13.766Z,6.03
2022-10-27T04:39:16.359Z,6.43
2022-10-27T04:40:17.948Z,6.40
2022-10-27T04:41:20.499Z,5.45
2022-10-27T04:42:22.068Z,5.88
2022-10-27T04:43:24.640Z,5.97
2022-10-27T04:44:26.189Z,6.30
2022-10-27T04:45:28.716Z,6.40
2022-10-27T04:46:30.300Z,5.10
2022-10-27T04:47:32.804Z,5.55
2022-10-27T04:48:34.372Z,5.90
2022-10-27T04:49:36.871Z,6.25
2022-10-27T04:50:38.405Z,6.05
2022-10-27T04:51:40.895Z,6.25
2022-10-27T04:52:44.409Z,5.90
2022-10-27T04:53:48.635Z,5.82
2022-10-27T04:54:50.200Z,6.72
2022-10-27T04:55:54.769Z,6.95
2022-10-27T04:56:56.315Z,6.35
2022-10-27T04:58:01.547Z,6.35
2022-10-27T04:59:04.821Z,6.53
2022-10-27T05:00:08.747Z,6.22
2022-10-27T05:01:12.302Z,6.95
2022-10-27T05:02:14.988Z,7.00
2022-10-27T05:03:16.624Z,7.07
2022-10-27T05:04:19.894Z,7.03
2022-10-27T05:05:21.856Z,6.43
2022-10-27T05:06:24.419Z,7.05
2022-10-27T05:07:25.980Z,6.13
2022-10-27T05:08:28.537Z,7.35
2022-10-27T05:09:31.442Z,6.57
2022-10-27T05:10:35.283Z,6.30
2022-10-27T05:11:36.820Z,6.68
2022-10-27T05:12:39.312Z,6.88
2022-10-27T05:13:40.922Z,6.95
2022-10-27T05:14:43.476Z,7.10
2022-10-27T05:15:45.039Z,7.50
2022-10-27T05:16:47.567Z,8.25
2022-10-27T05:17:49.360Z,7.22
2022-10-27T05:18:52.052Z,7.18
2022-10-27T05:19:53.568Z,7.13
2022-10-27T05:20:56.101Z,7.15
2022-10-27T05:21:57.609Z,7.38
2022-10-27T05:23:00.123Z,7.10
2022-10-27T05:24:02.758Z,7.20
2022-10-27T05:25:06.628Z,7.45
2022-10-27T05:26:09.426Z,6.57
2022-10-27T05:27:11.102Z,5.93
2022-10-27T05:28:14.387Z,6.68
2022-10-27T05:29:15.932Z,7.55
2022-10-27T05:30:18.590Z,6.68
2022-10-27T05:31:20.213Z,6.55
2022-10-27T05:32:22.723Z,8.30
2022-10-27T05:33:24.402Z,7.35
2022-10-27T05:34:26.958Z,7.65
2022-10-27T05:35:28.549Z,7.10
2022-10-27T05:36:31.047Z,7.18
2022-10-27T05:37:32.600Z,8.02
2022-10-27T05:38:38.013Z,7.40
2022-10-27T05:39:39.628Z,7.45
2022-10-27T05:40:43.692Z,7.13
2022-10-27T05:41:45.225Z,7.90
2022-10-27T05:42:52.045Z,8.30
2022-10-27T05:43:53.838Z,7.60
2022-10-27T05:44:56.465Z,7.88
2022-10-27T05:45:57.997Z,8.40
2022-10-27T05:47:00.624Z,9.00
2022-10-27T05:48:03.397Z,8.52
2022-10-27T05:49:05.990Z,8.43
2022-10-27T05:50:08.276Z,8.27
2022-10-27T05:51:11.114Z,8.10
2022-10-27T05:52:12.625Z,8.32
2022-10-27T05:53:15.085Z,7.15
2022-10-27T05:54:16.709Z,8.35
2022-10-27T05:55:19.226Z,7.70
2022-10-27T05:56:23.104Z,8.10
2022-10-27T05:57:24.641Z,7.60
2022-10-27T05:58:27.221Z,8.07
2022-10-27T05:59:28.915Z,8.40
2022-10-27T06:00:33.103Z,8.10
2022-10-27T06:01:34.761Z,8.05
2022-10-27T06:02:37.461Z,7.95
2022-10-27T06:03:39.151Z,7.80
2022-10-27T06:04:41.665Z,8.05
2022-10-27T06:05:43.381Z,8.48
2022-10-27T06:06:50.501Z,9.00
2022-10-27T06:07:54.565Z,9.32
2022-10-27T06:08:57.249Z,10.20
2022-10-27T06:09:58.779Z,9.50
2022-10-27T06:11:02.705Z,9.32
2022-10-27T06:12:06.707Z,10.07
2022-10-27T06:13:10.994Z,10.23
2022-10-27T06:14:13.551Z,9.57
2022-10-27T06:15:15.784Z,8.55
2022-10-27T06:16:18.670Z,8.88
2022-10-27T06:17:20.269Z,9.77
2022-10-27T06:18:22.854Z,8.38
2022-10-27T06:19:24.456Z,8.73
2022-10-27T06:20:27.602Z,9.85
2022-10-27T06:21:30.214Z,8.75
2022-10-27T06:22:31.754Z,8.80
2022-10-27T06:23:34.331Z,8.63
2022-10-27T06:24:35.885Z,8.57
2022-10-27T06:25:38.396Z,8.45
2022-10-27T06:26:39.912Z,8.48
2022-10-27T06:27:43.929Z,9.50
2022-10-27T06:28:45.548Z,9.18
2022-10-27T06:29:48.207Z,9.00
2022-10-27T06:30:49.813Z,9.80
2022-10-27T06:31:53.206Z,9.40
2022-10-27T06:32:56.117Z,9.13
2022-10-27T06:33:58.138Z,10.05
2022-10-27T06:35:00.622Z,8.63
2022-10-27T06:36:02.205Z,9.13
2022-10-27T06:37:05.559Z,8.57
2022-10-27T06:38:09.148Z,9.25
2022-10-27T06:39:12.016Z,8.35
2022-10-27T06:40:16.676Z,8.15
2022-10-27T06:41:19.268Z,9.18
2022-10-27T06:42:22.197Z,8.63
2022-10-27T06:43:26.083Z,8.32
2022-10-27T06:44:27.628Z,9.40
2022-10-27T06:45:30.153Z,8.50
2022-10-27T06:46:34.342Z,8.90
2022-10-27T06:47:36.868Z,8.20
2022-10-27T06:48:39.408Z,8.48
2022-10-27T06:49:40.981Z,8.95
2022-10-27T06:50:43.633Z,7.82
2022-10-27T06:51:46.146Z,8.43
2022-10-27T06:52:47.827Z,8.02
2022-10-27T06:53:50.401Z,7.65
2022-10-27T06:54:54.401Z,8.23
2022-10-27T06:55:57.809Z,8.20
2022-10-27T06:57:00.344Z,7.60
2022-10-27T06:58:02.844Z,7.95
2022-10-27T06:59:05.888Z,8.07
2022-10-27T07:00:10.016Z,8.23
2022-10-27T07:01:12.882Z,8.07
2022-10-27T07:02:15.693Z,7.28
2022-10-27T07:03:18.328Z,7.88
2022-10-27T07:04:19.966Z,7.47
2022-10-27T07:05:22.685Z,7.65
2022-10-27T07:06:24.638Z,7.03
2022-10-27T07:07:27.396Z,7.30
2022-10-27T07:08:29.001Z,7.68
2022-10-27T07:09:31.495Z,7.60
2022-10-27T07:10:33.042Z,7.28
2022-10-27T07:11:35.540Z,8.00
2022-10-27T07:12:37.080Z,7.93
2022-10-27T07:13:39.682Z,7.82
2022-10-27T07:14:42.575Z,9.02
2022-10-27T07:15:45.091Z,7.53
2022-10-27T07:16:46.686Z,7.70
2022-10-27T07:17:49.400Z,7.72
2022-10-27T07:18:52.054Z,7.25
2022-10-27T07:19:53.621Z,6.63
2022-10-27T07:20:56.147Z,6.47
2022-10-27T07:21:57.698Z,6.95
2022-10-27T07:23:00.279Z,6.10
2022-10-27T07:24:02.036Z,6.20
2022-10-27T07:25:04.998Z,6.68
2022-10-27T07:26:07.759Z,7.07
2022-10-27T07:27:11.018Z,6.43
2022-10-27T07:28:13.707Z,5.78
2022-10-27T07:29:15.455Z,6.63
2022-10-27T07:30:19.304Z,6.57
2022-10-27T07:31:20.913Z,6.40
2022-10-27T07:32:24.089Z,6.32
2022-10-27T07:33:26.718Z,6.68
2022-10-27T07:34:28.378Z,6.05
2022-10-27T07:35:31.251Z,5.97
2022-10-27T07:36:34.036Z,5.53
2022-10-27T07:37:35.593Z,6.13
2022-10-27T07:38:38.881Z,5.68
2022-10-27T07:39:40.451Z,5.45
2022-10-27T07:40:43.081Z,5.53
2022-10-27T07:41:44.619Z,5.93
2022-10-27T07:42:48.616Z,5.72
2022-10-27T07:43:51.302Z,4.72
2022-10-27T07:44:53.888Z,6.07
2022-10-27T07:45:57.814Z,4.97
2022-10-27T07:46:59.382Z,5.20
2022-10-27T07:48:01.895Z,4.57
2022-10-27T07:49:03.414Z,4.90
2022-10-27T07:50:08.576Z,4.38
2022-10-27T07:51:11.197Z,4.25
2022-10-27T07:52:12.725Z,4.70
2022-10-27T07:53:16.387Z,3.78
2022-10-27T07:54:17.935Z,4.00
2022-10-27T07:55:22.577Z,4.30
2022-10-27T07:56:24.235Z,3.85
2022-10-27T07:57:26.754Z,4.30
2022-10-27T07:58:29.481Z,4.50
2022-10-27T07:59:31.007Z,4.38
2022-10-27T08:00:35.261Z,3.45
2022-10-27T08:01:39.237Z,3.42
2022-10-27T08:02:40.985Z,3.30
2022-10-27T08:03:45.187Z,3.90
2022-10-27T08:04:49.022Z,3.28
2022-10-27T08:05:51.559Z,2.80
2022-10-27T08:06:54.069Z,3.25
2022-10-27T08:07:58.550Z,3.30
2022-10-27T08:09:01.062Z,3.00
2022-10-27T08:10:03.130Z,3.17
2022-10-27T08:11:05.757Z,2.90
2022-10-27T08:12:07.576Z,3.42
2022-10-27T08:13:10.965Z,2.72
2022-10-27T08:14:12.743Z,3.28
2022-10-27T08:15:15.404Z,2.97
2022-10-27T08:16:17.944Z,2.75
2022-10-27T08:17:20.965Z,2.70
2022-10-27T08:18:23.576Z,2.72
2022-10-27T08:19:25.126Z,2.85
2022-10-27T08:20:28.654Z,2.38
2022-10-27T08:21:31.388Z,2.90
2022-10-27T08:22:33.067Z,2.65
2022-10-27T08:23:35.692Z,3.15
2022-10-27T08:24:38.961Z,2.67
2022-10-27T08:25:41.953Z,3.05
2022-10-27T08:26:44.436Z,2.80
2022-10-27T08:27:45.993Z,2.03
2022-10-27T08:28:48.712Z,2.42
2022-10-27T08:29:50.362Z,2.50
2022-10-27T08:30:53.321Z,3.30
2022-10-27T08:31:55.898Z,2.10
2022-10-27T08:33:01.770Z,2.55
2022-10-27T08:34:04.302Z,2.78
2022-10-27T08:35:06.870Z,2.30
2022-10-27T08:36:11.469Z,2.45
2022-10-27T08:37:13.010Z,2.67
2022-10-27T08:38:16.406Z,2.10
2022-10-27T08:39:18.072Z,3.08
2022-10-27T08:40:20.606Z,2.58
2022-10-27T08:41:25.690Z,1.90
2022-10-27T08:42:38.749Z,2.05
2022-10-27T08:44:02.166Z,2.35
2022-10-27T08:45:08.693Z,1.92
2022-10-27T08:46:15.869Z,2.08
2022-10-27T08:47:21.610Z,1.83
2022-10-27T08:48:26.949Z,1.83
2022-10-27T08:49:34.541Z,1.83
2022-10-27T08:50:42.659Z,2.05
2022-10-27T08:51:45.176Z,1.90
2022-10-27T08:52:51.750Z,2.20
2022-10-27T08:53:54.306Z,1.95
2022-10-27T08:55:01.242Z,2.00
2022-10-27T08:56:08.088Z,1.95
2022-10-27T08:57:12.028Z,1.92
2022-10-27T08:58:20.893Z,1.95
2022-10-27T08:59:27.852Z,1.85
2022-10-27T09:00:32.728Z,1.83
2022-10-27T09:01:38.883Z,2.00
2022-10-27T09:02:51.777Z,1.70
2022-10-27T09:04:06.209Z,1.67
2022-10-27T09:05:26.016Z,1.88
2022-10-27T09:06:29.790Z,1.77
2022-10-27T09:07:40.146Z,1.65
2022-10-27T09:08:44.852Z,1.92
2022-10-27T09:09:53.042Z,1.55
2022-10-27T09:11:02.531Z,1.50
2022-10-27T09:12:14.975Z,1.52
2022-10-27T09:13:26.954Z,1.42
2022-10-27T09:14:52.472Z,1.65
2022-10-27T09:15:57.068Z,1.40
2022-10-27T09:17:03.283Z,1.45
2022-10-27T09:18:10.269Z,1.80
2022-10-27T09:19:17.184Z,1.60
2022-10-27T09:20:21.387Z,1.40
2022-10-27T09:21:25.249Z,1.38
2022-10-27T09:22:29.410Z,1.58
2022-10-27T09:23:36.620Z,1.85
2022-10-27T09:24:38.451Z,2.10
2022-10-27T09:25:41.809Z,1.25
2022-10-27T09:26:46.494Z,1.55
2022-10-27T09:27:53.943Z,1.20
2022-10-27T09:28:57.089Z,1.60
2022-10-27T09:30:06.179Z,1.45
2022-10-27T09:31:14.657Z,1.50
2022-10-27T09:32:20.481Z,1.58
2022-10-27T09:33:29.572Z,1.65
2022-10-27T09:34:37.595Z,1.30
2022-10-27T09:35:39.269Z,1.35
2022-10-27T09:36:41.809Z,1.52
2022-10-27T09:37:43.511Z,1.30
2022-10-27T09:38:46.032Z,1.50
2022-10-27T09:39:48.874Z,1.48
2022-10-27T09:40:52.618Z,1.45
2022-10-27T09:41:55.178Z,1.33
2022-10-27T09:42:57.580Z,1.50
2022-10-27T09:44:00.699Z,1.48
2022-10-27T09:45:03.280Z,2.00
2022-10-27T09:46:07.718Z,1.10
2022-10-27T09:47:10.261Z,1.20
2022-10-27T09:48:17.201Z,1.63
2022-10-27T09:49:20.898Z,1.30
2022-10-27T09:50:26.343Z,1.40
2022-10-27T09:51:36.201Z,1.35
2022-10-27T09:52:42.414Z,1.38
2022-10-27T09:53:47.857Z,1.17
2022-10-27T09:54:55.288Z,1.30
2022-10-27T09:55:57.437Z,1.50
2022-10-27T09:57:07.676Z,1.60
2022-10-27T09:58:09.248Z,2.13
2022-10-27T09:59:21.681Z,1.35
2022-10-27T10:00:27.683Z,1.20
2022-10-27T10:01:48.903Z,1.10
2022-10-27T10:02:58.891Z,1.30
2022-10-27T10:04:08.934Z,1.17
2022-10-27T10:05:20.832Z,1.15
2022-10-27T10:06:31.433Z,1.23
2022-10-27T10:07:36.247Z,1.25
2022-10-27T10:08:38.442Z,1.60
2022-10-27T10:09:40.969Z,1.50
2022-10-27T10:10:54.652Z,1.30
2022-10-27T10:12:23.248Z,1.40
2022-10-27T10:13:27.055Z,1.40
2022-10-27T10:14:28.622Z,1.25
2022-10-27T10:15:38.698Z,1.35
2022-10-27T10:16:44.305Z,1.30
2022-10-27T10:17:55.339Z,1.30
2022-10-27T10:19:02.197Z,1.33
2022-10-27T10:20:07.384Z,1.30
2022-10-27T10:21:10.277Z,1.33
2022-10-27T10:22:21.109Z,1.27
2022-10-27T10:23:23.907Z,2.00
2022-10-27T10:24:28.638Z,1.70
2022-10-27T10:25:32.967Z,1.40
2022-10-27T10:26:35.731Z,1.83
2022-10-27T10:27:39.054Z,1.30
2022-10-27T10:28:42.724Z,1.33
2022-10-27T10:29:47.492Z,1.88
2022-10-27T10:30:50.657Z,1.70
2022-10-27T10:31:53.198Z,1.45
2022-10-27T10:32:56.659Z,1.55
2022-10-27T10:34:04.785Z,2.03
2022-10-27T10:35:40.986Z,1.60
2022-10-27T10:36:43.572Z,0.95
2022-10-27T10:37:46.836Z,1.70
2022-10-27T10:38:53.149Z,1.35
2022-10-27T10:39:54.925Z,1.95
2022-10-27T10:41:00.272Z,1.58
2022-10-27T10:42:15.553Z,1.25
2022-10-27T10:43:18.049Z,1.42
2022-10-27T10:44:19.827Z,1.60
2022-10-27T10:45:24.876Z,1.33
2022-10-27T10:46:27.635Z,1.30
2022-10-27T10:47:30.169Z,1.55
2022-10-27T10:48:38.776Z,1.40
2022-10-27T10:49:45.733Z,1.27
2022-10-27T10:50:50.141Z,1.40
2022-10-27T10:51:53.840Z,2.00
2022-10-27T10:52:57.768Z,1.65
2022-10-27T10:54:02.585Z,1.67
2022-10-27T10:55:05.643Z,1.50
2022-10-27T10:56:21.483Z,1.63
2022-10-27T10:57:29.239Z,1.20
2022-10-27T10:58:37.091Z,1.60
2022-10-27T10:59:45.710Z,1.63
2022-10-27T11:00:55.407Z,1.13
2022-10-27T11:02:03.793Z,1.38
2022-10-27T11:03:12.889Z,1.38
2022-10-27T11:04:18.266Z,2.17
2022-10-27T11:05:22.487Z,1.15
2022-10-27T11:06:24.983Z,1.42
2022-10-27T11:07:31.304Z,1.50
2022-10-27T11:08:42.810Z,1.50
2022-10-27T11:09:48.563Z,1.40
2022-10-27T11:10:51.473Z,1.13
2022-10-27T11:11:54.243Z,1.40
2022-10-27T11:13:00.609Z,1.20
2022-10-27T11:14:07.496Z,1.50
2022-10-27T11:15:17.232Z,1.60
2022-10-27T11:16:19.200Z,1.67
2022-10-27T11:17:23.973Z,1.60
2022-10-27T11:18:29.561Z,1.92
2022-10-27T11:19:36.948Z,1.30
2022-10-27T11:20:38.547Z,1.50
2022-10-27T11:21:43.355Z,1.23
2022-10-27T11:23:50.796Z,1.13
2022-10-27T11:24:55.887Z,1.20
2022-10-27T11:25:59.516Z,1.20
2022-10-27T11:27:05.004Z,1.73
2022-10-27T11:28:12.510Z,1.20
2022-10-27T11:29:18.968Z,1.20
2022-10-27T11:30:22.841Z,1.20
2022-10-27T11:31:32.500Z,1.10
2022-10-27T11:32:40.295Z,1.40
2022-10-27T11:33:46.685Z,0.88
2022-10-27T11:34:56.384Z,1.15
2022-10-27T11:36:07.818Z,1.30
2022-10-27T11:37:17.649Z,1.17
2022-10-27T11:38:23.289Z,1.00
2022-10-27T11:39:31.872Z,0.88
2022-10-27T11:40:42.805Z,1.17
2022-10-27T11:41:49.469Z,1.05
2022-10-27T11:42:55.202Z,0.80
2022-10-27T11:44:08.761Z,1.67
2022-10-27T11:45:16.931Z,1.10
2022-10-27T11:46:21.745Z,1.02
2022-10-27T11:47:27.668Z,0.77
2022-10-27T11:48:33.849Z,1.08
2022-10-27T11:49:39.833Z,1.08
2022-10-27T11:50:46.637Z,1.20
2022-10-27T11:51:53.258Z,1.08
2022-10-27T11:52:57.432Z,1.25
2022-10-27T11:54:00.326Z,1.10
2022-10-27T11:55:05.496Z,0.93
2022-10-27T11:56:26.804Z,1.23
2022-10-27T11:57:39.461Z,1.30
2022-10-27T11:58:47.586Z,1.40
2022-10-27T12:00:02.195Z,1.23
2022-10-27T12:01:10.797Z,1.15
2022-10-27T12:02:30.002Z,1.40
2022-10-27T12:03:56.154Z,1.15
2022-10-27T12:05:03.345Z,1.25
2022-10-27T12:06:10.495Z,1.10
2022-10-27T12:07:19.804Z,1.10
2022-10-27T12:08:31.315Z,1.02
2022-10-27T12:09:39.741Z,1.27
2022-10-27T12:10:50.026Z,1.27
2022-10-27T12:11:57.049Z,1.35
2022-10-27T12:13:03.058Z,1.42
2022-10-27T12:14:08.458Z,1.10
2022-10-27T12:15:17.658Z,1.50
2022-10-27T12:16:22.680Z,1.05
2022-10-27T12:17:28.616Z,1.38
2022-10-27T12:18:36.864Z,1.00
2022-10-27T12:19:40.798Z,1.20
2022-10-27T12:20:46.677Z,1.20
2022-10-27T12:21:51.220Z,1.13
2022-10-27T12:22:56.643Z,1.17
2022-10-27T12:24:04.833Z,1.20
2022-10-27T12:25:11.789Z,1.33
2022-10-27T12:26:18.342Z,1.63
2022-10-27T12:27:22.923Z,1.65
2022-10-27T12:28:27.207Z,1.58
2022-10-27T12:29:34.146Z,1.58
2022-10-27T12:30:39.425Z,1.52
2022-10-27T12:31:45.437Z,1.50
2022-10-27T12:32:53.646Z,1.75
2022-10-27T12:33:57.665Z,1.58
2022-10-27T12:35:03.813Z,1.80
2022-10-27T12:36:12.273Z,1.80
2022-10-27T12:37:19.536Z,1.65
2022-10-27T12:38:28.760Z,1.70
2022-10-27T12:39:34.634Z,1.88
2022-10-27T12:40:46.132Z,1.83
2022-10-27T12:41:56.465Z,1.50
2022-10-27T12:43:06.253Z,1.30
2022-10-27T12:44:16.248Z,1.80
2022-10-27T12:45:31.623Z,1.33
2022-10-27T12:46:44.963Z,2.15
2022-10-27T12:47:55.561Z,1.92
2022-10-27T12:49:07.014Z,1.48
2022-10-27T12:50:19.532Z,1.40
2022-10-27T12:51:30.291Z,2.38
2022-10-27T12:52:36.993Z,1.75
2022-10-27T12:53:44.948Z,1.70
2022-10-27T12:54:59.423Z,1.52
2022-10-27T12:56:04.226Z,1.52
2022-10-27T12:57:21.363Z,1.33
2022-10-27T12:58:28.309Z,1.50
2022-10-27T12:59:46.725Z,1.50
2022-10-27T13:00:53.360Z,1.55
2022-10-27T13:01:58.363Z,1.70
2022-10-27T13:03:26.030Z,1.67
2022-10-27T13:04:51.671Z,1.40
2022-10-27T13:06:21.497Z,1.52
2022-10-27T13:08:04.025Z,1.10
2022-10-27T13:09:16.817Z,1.92
2022-10-27T13:10:35.667Z,1.60
2022-10-27T13:12:01.803Z,1.80
2022-10-27T13:13:18.760Z,1.55
2022-10-27T13:14:51.213Z,1.42
2022-10-27T13:16:00.227Z,1.52
2022-10-27T13:17:11.154Z,2.22
2022-10-27T13:18:22.313Z,2.38
2022-10-27T13:19:36.206Z,1.80
2022-10-27T13:20:47.684Z,1.98
2022-10-27T13:21:52.801Z,1.40
2022-10-27T13:22:57.039Z,1.35
2022-10-27T13:24:06.167Z,1.48
2022-10-27T13:25:16.355Z,1.50
2022-10-27T13:26:22.953Z,1.60
2022-10-27T13:27:30.611Z,1.50
2022-10-27T13:28:36.616Z,1.30
2022-10-27T13:29:43.243Z,1.65
2022-10-27T13:30:52.838Z,1.75
2022-10-27T13:32:17.424Z,1.50
2022-10-27T13:33:33.584Z,1.40
2022-10-27T13:34:35.140Z,1.60
2022-10-27T13:35:38.164Z,2.65
2022-10-27T13:36:40.769Z,1.30
2022-10-27T13:37:44.585Z,1.77
2022-10-27T13:38:47.307Z,1.80
2022-10-27T13:39:49.052Z,1.50
2022-10-27T13:40:53.443Z,1.63
2022-10-27T13:42:13.839Z,2.05
2022-10-27T13:44:00.244Z,1.20
2022-10-27T13:45:45.622Z,1.83
2022-10-27T13:47:15.703Z,1.52
2022-10-27T13:48:34.000Z,1.73
2022-10-27T13:50:01.328Z,1.80
2022-10-27T13:51:48.278Z,1.67
2022-10-27T13:53:31.232Z,2.13
2022-10-27T13:55:03.326Z,1.70
2022-10-27T13:56:39.043Z,1.50
2022-10-27T13:58:03.229Z,1.40
2022-10-27T13:59:13.798Z,1.60
2022-10-27T14:00:20.400Z,1.50
2022-10-27T14:01:25.795Z,2.28
2022-10-27T14:02:34.765Z,1.67
2022-10-27T14:04:15.209Z,1.88
2022-10-27T14:05:29.355Z,1.50
2022-10-27T14:06:33.698Z,1.95
2022-10-27T14:07:37.061Z,1.50
2022-10-27T14:08:48.464Z,1.40
2022-10-27T14:09:52.255Z,1.73
2022-10-27T14:10:55.694Z,1.50
2022-10-27T14:12:00.658Z,1.33
2022-10-27T14:13:03.251Z,1.58
2022-10-27T14:14:08.063Z,1.42
2022-10-27T14:15:19.224Z,1.67
2022-10-27T14:16:24.379Z,1.60
2022-10-27T14:17:27.492Z,1.90
2022-10-27T14:18:31.227Z,1.85
2022-10-27T14:19:34.573Z,2.00
2022-10-27T14:20:37.889Z,1.80
2022-10-27T14:21:42.901Z,1.92
2022-10-27T14:22:47.903Z,2.67
2022-10-27T14:23:51.140Z,1.88
2022-10-27T14:24:58.589Z,2.30
2022-10-27T14:26:22.403Z,2.08
2022-10-27T14:27:24.343Z,2.50
2022-10-27T14:28:26.852Z,2.00
2022-10-27T14:29:32.374Z,2.03
2022-10-27T14:30:37.319Z,2.10
2022-10-27T14:31:38.862Z,1.85
2022-10-27T14:32:41.443Z,2.25
2022-10-27T14:33:43.266Z,1.85
2022-10-27T14:34:51.007Z,1.90